Hartford/Springfield (BDL/KBDL)

Information

Location
Hartford, CT
Local Time
01:10 / 1:10 am
GMT Time
06:10 / 6:10 am
Gates
A9
No FAA reported delays
METAR KBDL 140551Z 22005KT 10SM BKN080 OVC100 M06/M14 A2963 RMK AO2 SLP034 4/002 T10611139 11061 21078 51009
TAF KBDL 140535Z 1406/1512 24006KT P6SM BKN080 FM140800 24004KT P6SM VCSH OVC050 FM141100 34004KT 5SM -SN OVC025 FM141400 34006KT P6SM BKN050 FM142100 31012G24KT P6SM SKC FM150100 30010KT P6SM SKC FM150400 29006KT P6SM SKC